x

Venice, Fl (venf1) Weather Station

7:00am - Tue 26th Sep 2017 All times are EDT. -4 hours from GMT.

  • Wind
    7mph, 9mph gusts
  • Sea Temp 85°f
  • Air Temp 78°f
  • Sea Pressure 1012.3mb
  • Venice, Fl
  • Venice, Fl

More Historic Weather Station data

Upgrade to MSW Pro to gain access to the past 30 days of data for over 8000 Wavebouys and Weather Stations around the globe.

Join

Comparision Forecast

View Surf forecast
   
Tue 09/26 7:00am 7 9 mph 1012.3mb 85f 78f
6:00am 6 7 mph 1011.8mb 85f 79f
5:00am 6 7 mph 1011.3mb 85f 79f
4:00am 6 8 mph 1011.5mb 85f 79f
3:00am 5 5 mph 1011.8mb 85f 81f
2:00am 5 6 mph 1011.9mb 85f 81f
1:00am 8 10 mph 1012.1mb 85f 83f
12:00am 7 8 mph 1012.1mb 85f 83f
Mon 09/25 11:00pm 6 7 mph 1012.2mb 85f 83f
10:00pm 7 8 mph 1012mb 86f 83f
9:00pm 6 7 mph 1011.6mb 86f 83f
8:00pm 8 9 mph 1011.1mb 86f 83f
7:00pm 8 9 mph 1010.8mb 86f 84f
6:00pm 8 9 mph 1010.3mb 86f 84f
5:00pm 9 11 mph 1010.4mb 86f 85f
4:00pm 10 13 mph 1010.7mb 86f 85f
3:00pm 8 9 mph 1011.3mb 85f 85f
2:00pm 10 11 mph 1012mb 85f 84f
1:00pm 9 9 mph 1012.7mb 85f 85f
12:00pm 6 6 mph 1013.1mb 84f 85f
11:00am 1 2 mph 1013.2mb 84f 84f
10:00am 6 7 mph 1013.2mb 84f 82f
9:00am 7 9 mph 1012.8mb 84f 80f
8:00am 8 10 mph 1012.4mb 84f 78f
7:00am 5 6 mph 1011.9mb 84f 77f
6:00am 5 6 mph 1011.5mb 84f 78f
5:00am 3 5 mph 1011.4mb 84f 78f
4:00am 3 5 mph 1011.3mb 84f 79f
3:00am 5 6 mph 1011.4mb 84f 78f
2:00am 3 6 mph 1011.5mb 84f 78f
1:00am 6 7 mph 1011.8mb 84f 79f
12:00am 6 7 mph 1012.1mb 84f 79f
Sun 09/24 11:00pm 6 7 mph 1012.3mb 84f 79f
10:00pm 6 7 mph 1012.1mb 84f 79f
9:00pm 10 13 mph 1012.1mb 84f 80f
8:00pm 2 3 mph 1011.2mb 85f 83f
7:00pm 7 8 mph 1010.6mb 85f 82f
6:00pm 15 17 mph 1010.3mb 85f 84f
5:00pm 7 8 mph 1010.4mb 85f 86f
4:00pm 7 7 mph 1010.4mb 84f 85f
3:00pm 3 3 mph 1010.8mb 84f 87f
2:00pm 5 7 mph 1011.7mb 84f 85f
1:00pm 6 7 mph 1012.5mb 84f 86f
12:00pm 8 11 mph 1012.9mb 84f 84f
11:00am 10 13 mph 1012.9mb 84f 83f
10:00am 8 11 mph 1012.6mb 83f 81f
9:00am 8 11 mph 1012.2mb 83f 79f
8:00am 7 9 mph 1012mb 83f 76f
7:00am 7 9 mph 1011.4mb 84f 75f
6:00am 7 9 mph 1011mb 84f 75f
5:00am 8 9 mph 1010.8mb 84f 75f
4:00am 5 7 mph 1010.8mb 84f 76f
3:00am 7 8 mph 1011mb 84f 76f
2:00am 8 9 mph 1011mb 84f 76f
1:00am 8 10 mph 1010.8mb 84f 76f
12:00am 7 9 mph 1011.6mb 84f 76f
Sat 09/23 11:00pm 7 9 mph 1011.9mb 84f 77f
10:00pm 7 13 mph 1011.8mb 84f 77f
9:00pm 8 10 mph 1011.4mb 84f 79f
8:00pm 6 7 mph 1010.7mb 85f 80f
7:00pm 7 9 mph 1010.1mb 85f 80f
6:00pm 9 11 mph 1010.4mb 85f 80f
5:00pm 17 21 mph 1010.3mb 85f 82f
4:00pm 11 14 mph 1010mb 85f 86f
3:00pm 10 14 mph 1010.9mb 85f 85f
2:00pm 5 7 mph 1011.4mb 85f 85f
1:00pm 11 15 mph 1011.8mb 85f 85f
12:00pm 11 17 mph 1012.2mb 84f 85f
11:00am 11 15 mph 1012.6mb 84f 82f
10:00am 10 11 mph 1012.2mb 84f 80f
9:00am 9 11 mph 1012mb 84f 79f
8:00am 8 10 mph 1011.7mb 84f 75f
7:00am 6 8 mph 1011.3mb 84f 76f
6:00am 6 9 mph 1011mb 84f 76f
5:00am 8 9 mph 1010.3mb 84f 76f
4:00am 7 9 mph 1010.7mb 85f 76f
3:00am 7 8 mph 1011.2mb 85f 76f
2:00am 5 6 mph 1011.6mb 85f 76f
1:00am 10 13 mph 1011.7mb 85f 77f
12:00am 7 9 mph 1012mb 85f 77f
Fri 09/22 11:00pm 7 10 mph 1012.4mb 85f 78f
10:00pm 9 11 mph 1012.3mb 85f 78f
9:00pm 6 7 mph 1011.6mb 85f 77f
8:00pm 8 10 mph 1011.7mb 85f 78f
7:00pm 13 17 mph 1010.9mb 85f 84f
6:00pm 18 21 mph 1010.1mb 85f 84f
5:00pm 20 22 mph 1010.6mb 85f 84f
4:00pm 15 15 mph 1011.2mb 85f 84f
3:00pm 15 16 mph 1011.9mb 85f 83f
2:00pm 13 14 mph 1012.6mb 84f 83f
1:00pm 9 10 mph 1013.1mb 84f 84f